Time;durP1;ratioP1;P1;durP2;ratioP2;P2;SDS_P1;SDS_P2;PMS_P1;PMS_P2;Temp;Humidity;BMP_temperature;BMP_pressure;BME280_temperature;BME280_humidity;BME280_pressure;Samples;Min_cycle;Max_cycle;Signal;HPM_P1;HPM_P2
2023/03/03 00:02:03;;;;;;;90.45;32.53;;;6.90;87.40;;;;;;5027660;28;20030;-56
2023/03/03 00:04:29;;;;;;;87.43;31.90;;;6.90;87.40;;;;;;5028070;28;20026;-56
2023/03/03 00:06:54;;;;;;;84.05;31.55;;;6.90;87.40;;;;;;5027563;28;20367;-55
2023/03/03 00:09:20;;;;;;;102.70;31.23;;;6.90;87.30;;;;;;5027534;28;20025;-56
2023/03/03 00:11:51;;;;;;;81.90;30.48;;;6.90;87.30;;;;;;5027555;28;20034;-56
2023/03/03 00:14:21;;;;;;;77.45;29.33;;;6.80;87.40;;;;;;5027360;28;20034;-56
2023/03/03 00:16:48;;;;;;;90.03;30.95;;;6.90;87.40;;;;;;5025975;28;20054;-56
2023/03/03 00:19:16;;;;;;;89.07;30.20;;;6.80;87.40;;;;;;5027048;28;20106;-56
2023/03/03 00:21:43;;;;;;;82.03;29.83;;;6.80;87.50;;;;;;5027137;28;20447;-56
2023/03/03 00:24:22;;;;;;;76.00;28.77;;;6.80;87.50;;;;;;5027125;28;20030;-56
2023/03/03 00:26:55;;;;;;;75.70;29.20;;;6.80;87.60;;;;;;5026941;28;20390;-56
2023/03/03 00:29:30;;;;;;;72.43;29.13;;;6.80;87.50;;;;;;5025808;28;20029;-56
2023/03/03 00:32:11;;;;;;;77.13;30.13;;;6.70;87.40;;;;;;5035391;28;20044;-56
2023/03/03 00:34:36;;;;;;;78.60;29.98;;;6.70;87.50;;;;;;5045653;28;20121;-56
2023/03/03 00:37:02;;;;;;;78.13;30.15;;;6.70;87.50;;;;;;5045502;28;20085;-56
2023/03/03 00:39:37;;;;;;;76.40;30.02;;;6.70;87.50;;;;;;5046702;28;20122;-56
2023/03/03 00:42:16;;;;;;;77.72;29.80;;;6.70;87.60;;;;;;5029586;28;20062;-56
2023/03/03 00:44:42;;;;;;;66.55;27.80;;;6.70;87.60;;;;;;5025477;28;20038;-56
2023/03/03 00:47:26;;;;;;;72.18;28.52;;;6.70;87.50;;;;;;5026825;28;20030;-56
2023/03/03 00:50:12;;;;;;;63.28;29.63;;;6.70;87.60;;;;;;5026851;28;20022;-56
2023/03/03 00:52:38;;;;;;;;;;;6.70;87.70;;;;;;5025700;28;20085;-56
2023/03/03 00:55:04;;;;;;;76.80;29.30;;;6.70;87.70;;;;;;5026495;28;20323;-56
2023/03/03 00:57:30;;;;;;;75.15;30.30;;;6.70;87.70;;;;;;5026587;28;20026;-56
2023/03/03 00:59:55;;;;;;;61.47;27.85;;;6.70;87.70;;;;;;5027003;28;20040;-56
2023/03/03 01:02:21;;;;;;;57.72;29.17;;;6.60;87.70;;;;;;5026643;28;20451;-56
2023/03/03 01:04:49;;;;;;;57.13;28.58;;;6.60;87.80;;;;;;5025483;28;20081;-56
2023/03/03 01:07:14;;;;;;;71.75;29.23;;;6.60;87.80;;;;;;5024829;28;20033;-56
2023/03/03 01:09:40;;;;;;;68.85;28.80;;;6.60;87.80;;;;;;5044799;28;20030;-56
2023/03/03 01:12:06;;;;;;;60.13;29.00;;;6.60;87.80;;;;;;5044790;28;20480;-56
2023/03/03 01:14:31;;;;;;;59.83;28.70;;;6.60;87.80;;;;;;5044746;28;20045;-56
2023/03/03 01:16:57;;;;;;;68.53;29.98;;;6.60;87.80;;;;;;5040670;28;20030;-56
2023/03/03 01:19:22;;;;;;;50.08;28.02;;;6.60;87.80;;;;;;5026102;28;20038;-56
2023/03/03 01:21:48;;;;;;;59.25;28.05;;;6.60;87.70;;;;;;5026049;28;20029;-55
2023/03/03 01:24:13;;;;;;;61.60;28.77;;;6.60;87.70;;;;;;5026019;28;20025;-56
2023/03/03 01:26:39;;;;;;;61.70;28.25;;;6.50;87.70;;;;;;5026410;28;20351;-56
2023/03/03 01:29:05;;;;;;;62.28;28.77;;;6.60;87.80;;;;;;5026074;28;20108;-56
2023/03/03 01:31:30;;;;;;;66.70;28.27;;;6.60;87.80;;;;;;5026045;28;20041;-56
2023/03/03 01:33:56;;;;;;;51.53;27.25;;;6.50;87.90;;;;;;5024589;28;20030;-56
2023/03/03 01:36:25;;;;;;;56.83;27.95;;;6.60;88.60;;;;;;5041461;28;20030;-56
2023/03/03 01:38:50;;;;;;;56.38;27.15;;;6.50;88.10;;;;;;5044202;28;20392;-56
2023/03/03 01:41:16;;;;;;;52.95;27.50;;;6.50;88.10;;;;;;5045437;28;20060;-56
2023/03/03 01:43:44;;;;;;;55.97;28.17;;;6.50;88.10;;;;;;5045204;28;20025;-56
2023/03/03 01:46:25;;;;;;;55.72;28.08;;;6.50;88.10;;;;;;5045527;28;20029;-56
2023/03/03 01:48:52;;;;;;;47.60;25.77;;;6.50;88.10;;;;;;5044062;28;20022;-56
2023/03/03 01:51:32;;;;;;;50.22;28.17;;;6.50;88.10;;;;;;5044023;28;20029;-54
2023/03/03 01:54:11;;;;;;;55.03;27.98;;;6.50;88.20;;;;;;5043091;28;20036;-54
2023/03/03 01:56:37;;;;;;;52.83;29.15;;;6.50;88.10;;;;;;5044093;28;20026;-54
2023/03/03 01:59:12;;;;;;;56.03;28.88;;;6.50;88.20;;;;;;5045154;28;20037;-54
2023/03/03 02:01:37;;;;;;;55.95;29.10;;;6.50;88.20;;;;;;5043791;28;20112;-54
2023/03/03 02:04:03;;;;;;;53.80;30.08;;;6.50;88.20;;;;;;5044669;28;20033;-54
2023/03/03 02:06:37;;;;;;;50.15;28.83;;;6.50;88.20;;;;;;5044047;28;20056;-55
2023/03/03 02:09:05;;;;;;;54.28;29.75;;;6.50;88.20;;;;;;5043768;28;20022;-54
2023/03/03 02:11:31;;;;;;;57.50;29.45;;;6.50;88.20;;;;;;5037073;28;20030;-54
2023/03/03 02:13:56;;;;;;;50.00;29.35;;;6.40;88.20;;;;;;5025389;28;20022;-54
2023/03/03 02:16:22;;;;;;;50.10;29.13;;;6.40;88.20;;;;;;5025013;28;20024;-54
2023/03/03 02:18:48;;;;;;;57.10;30.48;;;6.40;88.30;;;;;;5023931;28;20089;-54
2023/03/03 02:21:15;;;;;;;55.20;30.65;;;6.40;88.30;;;;;;5025668;28;20054;-54
2023/03/03 02:23:52;;;;;;;52.20;29.25;;;6.40;88.30;;;;;;5024926;28;20022;-54
2023/03/03 02:26:17;;;;;;;47.60;28.35;;;6.40;88.30;;;;;;5023908;28;20030;-55
2023/03/03 02:28:43;;;;;;;54.67;29.27;;;6.40;88.30;;;;;;5024992;28;20164;-54
2023/03/03 02:31:14;;;;;;;47.38;29.83;;;6.40;88.40;;;;;;5023999;28;20041;-55
2023/03/03 02:33:44;;;;;;;47.03;29.70;;;6.40;88.40;;;;;;5025123;28;20040;-54
2023/03/03 02:36:19;;;;;;;48.95;29.83;;;6.40;88.50;;;;;;5025028;28;20038;-54
2023/03/03 02:38:54;;;;;;;;;;;6.40;88.40;;;;;;5031872;28;20021;-54
2023/03/03 02:41:29;;;;;;;51.17;31.40;;;6.40;88.40;;;;;;5059736;28;19921;-55
2023/03/03 02:44:08;;;;;;;46.47;30.60;;;6.40;88.40;;;;;;5043172;28;20057;-54
2023/03/03 02:46:36;;;;;;;55.28;31.60;;;6.40;88.40;;;;;;5044665;28;20017;-54
2023/03/03 02:49:02;;;;;;;55.63;30.42;;;6.40;88.50;;;;;;5043464;28;20034;-54
2023/03/03 02:51:27;;;;;;;49.58;30.80;;;6.40;88.50;;;;;;5044559;28;20026;-54
2023/03/03 02:53:53;;;;;;;50.63;29.38;;;6.40;88.50;;;;;;5044485;28;20068;-54
2023/03/03 02:56:18;;;;;;;46.70;29.85;;;6.40;88.50;;;;;;5043807;28;20131;-55
2023/03/03 02:58:44;;;;;;;48.95;30.15;;;6.40;88.60;;;;;;5044457;28;20113;-54
2023/03/03 03:01:09;;;;;;;50.53;29.42;;;6.40;88.60;;;;;;5042499;28;20037;-54
2023/03/03 03:03:35;;;;;;;51.53;29.98;;;6.30;89.20;;;;;;5044554;28;20073;-54
2023/03/03 03:06:01;;;;;;;49.90;29.25;;;6.40;88.70;;;;;;5043785;28;20108;-54
2023/03/03 03:08:26;;;;;;;41.55;27.88;;;6.40;88.70;;;;;;5043133;28;20018;-54
2023/03/03 03:10:52;;;;;;;44.83;28.58;;;6.40;88.80;;;;;;5044617;28;20041;-54
2023/03/03 03:13:17;;;;;;;42.53;28.25;;;6.40;89.50;;;;;;5044307;28;20358;-54
2023/03/03 03:15:46;;;;;;;44.00;28.42;;;6.40;89.60;;;;;;5032042;28;20030;-54
2023/03/03 03:18:12;;;;;;;41.08;27.17;;;6.40;90.00;;;;;;5024491;28;20022;-54
2023/03/03 03:20:39;;;;;;;46.38;27.73;;;6.40;90.00;;;;;;5024821;28;20088;-54
2023/03/03 03:23:05;;;;;;;42.35;27.63;;;6.40;90.00;;;;;;5024892;28;20363;-54
2023/03/03 03:25:30;;;;;;;50.50;28.75;;;6.50;90.10;;;;;;5025118;28;20093;-54
2023/03/03 03:27:56;;;;;;;43.83;27.63;;;6.50;90.20;;;;;;5023013;28;20022;-54
2023/03/03 03:30:21;;;;;;;46.05;28.08;;;6.50;90.20;;;;;;5028257;28;20041;-54
2023/03/03 03:32:47;;;;;;;45.53;27.17;;;6.50;90.50;;;;;;5028530;28;20053;-54
2023/03/03 03:35:12;;;;;;;39.60;26.95;;;6.50;90.30;;;;;;5027986;28;20340;-54
2023/03/03 03:37:38;;;;;;;48.28;27.38;;;6.50;90.30;;;;;;5028136;28;20156;-54
2023/03/03 03:40:04;;;;;;;38.05;26.90;;;6.50;90.30;;;;;;5028038;28;20034;-54
2023/03/03 03:42:30;;;;;;;47.05;27.15;;;6.50;90.30;;;;;;5028528;28;20061;-54
2023/03/03 03:44:56;;;;;;;41.63;26.85;;;6.50;90.30;;;;;;5028289;28;20033;-54
2023/03/03 03:47:21;;;;;;;41.42;28.20;;;6.50;90.30;;;;;;5027827;28;20025;-54
2023/03/03 03:49:47;;;;;;;39.80;27.33;;;6.50;90.30;;;;;;5027935;28;20037;-54
2023/03/03 03:52:12;;;;;;;39.47;27.48;;;6.50;90.30;;;;;;5028494;28;20435;-54
2023/03/03 03:54:38;;;;;;;42.22;26.85;;;6.50;90.30;;;;;;5027915;28;20045;-54
2023/03/03 03:57:05;;;;;;;45.45;28.13;;;6.60;90.40;;;;;;5027811;28;20100;-54
2023/03/03 03:59:30;;;;;;;38.33;25.98;;;6.50;90.40;;;;;;5027693;28;20438;-54
2023/03/03 04:01:56;;;;;;;56.67;28.95;;;6.60;90.40;;;;;;5027973;28;20382;-54
2023/03/03 04:04:21;;;;;;;41.88;27.48;;;6.60;90.40;;;;;;5027721;28;20033;-54
2023/03/03 04:06:48;;;;;;;44.38;28.38;;;6.60;90.40;;;;;;5027821;28;20030;-54
2023/03/03 04:09:13;;;;;;;52.92;28.52;;;6.60;90.40;;;;;;5038712;28;20025;-54
2023/03/03 04:11:39;;;;;;;42.33;27.90;;;6.60;90.40;;;;;;5047175;28;20033;-54
2023/03/03 04:14:04;;;;;;;42.78;28.30;;;6.60;90.40;;;;;;5046848;28;20028;-55
2023/03/03 04:16:30;;;;;;;44.65;27.50;;;6.60;90.50;;;;;;5046216;28;20078;-54
2023/03/03 04:18:56;;;;;;;42.38;28.02;;;6.60;90.60;;;;;;5046242;28;20562;-54
2023/03/03 04:21:21;;;;;;;47.10;28.90;;;6.60;90.70;;;;;;5045428;28;20025;-54
2023/03/03 04:23:47;;;;;;;45.75;27.50;;;6.70;90.70;;;;;;5047272;28;20040;-54
2023/03/03 04:26:12;;;;;;;53.25;28.77;;;6.70;90.80;;;;;;5047170;28;20032;-54
2023/03/03 04:28:38;;;;;;;50.22;28.80;;;6.70;90.80;;;;;;5046947;28;20041;-54
2023/03/03 04:31:04;;;;;;;42.42;29.50;;;6.70;90.80;;;;;;5047058;28;20033;-54
2023/03/03 04:33:29;;;;;;;48.65;30.60;;;6.70;90.80;;;;;;5047026;28;20026;-54
2023/03/03 04:35:55;;;;;;;43.60;29.85;;;6.70;90.80;;;;;;5045721;28;20500;-54
2023/03/03 04:38:20;;;;;;;44.97;29.58;;;6.70;90.70;;;;;;5046774;28;20026;-54
2023/03/03 04:40:46;;;;;;;43.92;30.13;;;6.70;90.60;;;;;;5045163;28;20049;-54
2023/03/03 04:43:12;;;;;;;45.75;28.80;;;6.70;90.50;;;;;;5046901;28;20025;-54
2023/03/03 04:45:37;;;;;;;50.33;30.08;;;6.70;90.40;;;;;;5046844;28;20038;-54
2023/03/03 04:48:03;;;;;;;62.72;30.92;;;6.60;90.70;;;;;;5046663;28;20048;-54
2023/03/03 04:50:28;;;;;;;55.78;29.20;;;6.60;90.30;;;;;;5046650;28;20053;-54
2023/03/03 04:52:54;;;;;;;57.40;29.10;;;6.60;90.30;;;;;;5046497;28;20041;-54
2023/03/03 04:55:19;;;;;;;54.03;30.13;;;6.60;90.20;;;;;;5046390;28;20036;-54
2023/03/03 04:57:45;;;;;;;56.95;31.02;;;6.60;90.20;;;;;;5046502;28;20045;-55
2023/03/03 05:00:12;;;;;;;50.25;30.73;;;6.60;90.30;;;;;;5046330;28;20029;-54
2023/03/03 05:02:38;;;;;;;56.30;30.35;;;6.60;90.30;;;;;;5044922;28;20067;-55
2023/03/03 05:05:04;;;;;;;55.38;30.63;;;6.60;90.20;;;;;;5046527;28;20030;-54
2023/03/03 05:07:30;;;;;;;52.92;29.27;;;6.60;90.20;;;;;;5046482;28;20033;-54
2023/03/03 05:09:56;;;;;;;49.17;28.73;;;6.60;90.20;;;;;;5046183;28;20104;-54
2023/03/03 05:12:21;;;;;;;55.80;30.02;;;6.60;90.50;;;;;;5046215;28;20029;-55
2023/03/03 05:14:47;;;;;;;58.17;30.25;;;6.60;90.40;;;;;;5044801;28;20136;-54
2023/03/03 05:17:13;;;;;;;58.08;30.30;;;6.60;90.50;;;;;;5046235;28;20029;-54
2023/03/03 05:19:39;;;;;;;53.35;31.25;;;6.60;90.60;;;;;;5046046;28;20088;-54
2023/03/03 05:22:04;;;;;;;54.80;30.95;;;6.60;90.80;;;;;;5044811;28;20033;-54
2023/03/03 05:24:30;;;;;;;54.10;30.88;;;6.60;90.80;;;;;;5044569;28;20030;-54
2023/03/03 05:26:55;;;;;;;50.80;29.52;;;6.60;90.80;;;;;;5044599;28;20034;-54
2023/03/03 05:29:21;;;;;;;52.08;29.98;;;6.60;90.80;;;;;;5044344;28;20034;-54
2023/03/03 05:31:46;;;;;;;52.78;30.20;;;6.60;90.70;;;;;;5046046;28;20030;-54
2023/03/03 05:34:12;;;;;;;57.72;30.95;;;6.60;90.80;;;;;;5045748;28;20465;-54
2023/03/03 05:36:37;;;;;;;58.15;29.60;;;6.60;90.80;;;;;;5045765;28;20350;-54
2023/03/03 05:39:03;;;;;;;59.65;30.63;;;6.60;90.80;;;;;;5044346;28;20018;-54
2023/03/03 05:41:29;;;;;;;47.17;29.13;;;6.60;90.80;;;;;;5044313;28;20029;-54
2023/03/03 05:43:55;;;;;;;54.95;29.50;;;6.60;90.80;;;;;;5046066;28;20381;-54
2023/03/03 05:46:20;;;;;;;53.15;30.25;;;6.60;90.80;;;;;;5045645;28;20466;-54
2023/03/03 05:48:46;;;;;;;46.75;30.70;;;6.60;90.80;;;;;;5045412;28;20034;-54
2023/03/03 05:51:11;;;;;;;56.50;29.27;;;6.60;90.80;;;;;;5026879;28;20048;-54
2023/03/03 05:53:37;;;;;;;51.33;29.27;;;6.60;90.90;;;;;;5045338;28;20044;-54
2023/03/03 05:56:03;;;;;;;63.40;30.70;;;6.60;90.90;;;;;;5045558;28;20036;-54
2023/03/03 05:58:29;;;;;;;51.47;29.50;;;6.60;90.90;;;;;;5045442;28;20035;-54
2023/03/03 06:00:54;;;;;;;59.72;31.05;;;6.60;91.00;;;;;;5043932;28;20034;-55
2023/03/03 06:03:20;;;;;;;56.42;29.88;;;6.50;90.90;;;;;;5045287;28;20035;-54
2023/03/03 06:05:45;;;;;;;55.28;29.95;;;6.50;90.90;;;;;;5045352;28;20025;-54
2023/03/03 06:08:11;;;;;;;52.85;30.42;;;6.50;90.90;;;;;;5045263;28;20091;-55
2023/03/03 06:10:36;;;;;;;51.75;28.42;;;6.50;90.90;;;;;;5045228;28;20041;-54
2023/03/03 06:13:02;;;;;;;46.70;30.10;;;6.50;90.90;;;;;;5045130;28;20120;-54
2023/03/03 06:15:27;;;;;;;42.58;28.27;;;6.50;90.80;;;;;;5044947;28;20438;-54
2023/03/03 06:17:53;;;;;;;54.33;29.27;;;6.50;90.90;;;;;;5044906;28;20034;-54
2023/03/03 06:20:19;;;;;;;46.70;28.55;;;6.50;90.80;;;;;;5043496;28;20087;-54
2023/03/03 06:22:44;;;;;;;51.58;29.33;;;6.50;90.80;;;;;;5044810;28;20080;-54
2023/03/03 06:25:10;;;;;;;46.92;27.60;;;6.50;90.90;;;;;;5044856;28;20116;-54
2023/03/03 06:27:35;;;;;;;45.53;28.23;;;6.50;90.90;;;;;;5044881;28;20053;-54
2023/03/03 06:30:01;;;;;;;44.10;28.27;;;6.50;90.80;;;;;;5044590;28;20032;-54
2023/03/03 06:32:27;;;;;;;48.00;28.02;;;6.50;90.80;;;;;;5044819;28;20048;-54
2023/03/03 06:34:52;;;;;;;46.15;28.33;;;6.50;90.80;;;;;;5043178;28;20052;-54
2023/03/03 06:37:18;;;;;;;42.10;28.77;;;6.50;90.80;;;;;;5044837;28;20039;-54
2023/03/03 06:39:44;;;;;;;42.50;27.88;;;6.50;90.70;;;;;;5044666;28;20044;-54
2023/03/03 06:42:09;;;;;;;45.22;27.33;;;6.50;90.70;;;;;;5044669;28;20116;-54
2023/03/03 06:44:35;;;;;;;46.58;29.95;;;6.50;90.70;;;;;;5044739;28;20030;-54
2023/03/03 06:47:01;;;;;;;49.67;28.27;;;6.50;90.90;;;;;;5044698;28;20033;-54
2023/03/03 06:49:26;;;;;;;48.90;28.35;;;6.50;90.60;;;;;;5044424;28;20036;-54
2023/03/03 06:51:52;;;;;;;44.05;27.92;;;6.60;90.60;;;;;;5044640;28;20048;-54
2023/03/03 06:54:19;;;;;;;46.67;27.55;;;6.50;90.60;;;;;;5044438;28;20029;-54
2023/03/03 06:56:45;;;;;;;42.83;27.83;;;6.50;90.60;;;;;;5044589;28;20029;-54
2023/03/03 06:59:15;;;;;;;46.30;27.55;;;6.60;90.70;;;;;;5044478;28;20044;-55
2023/03/03 07:01:41;;;;;;;49.13;29.05;;;6.50;90.70;;;;;;5064662;28;20052;-55
2023/03/03 07:04:15;;;;;;;46.97;28.55;;;6.50;90.70;;;;;;5068080;28;20017;-54
2023/03/03 07:06:40;;;;;;;46.65;29.00;;;6.50;90.70;;;;;;5068340;28;20053;-54
2023/03/03 07:09:18;;;;;;;47.78;27.80;;;6.60;90.80;;;;;;5068334;28;20036;-54
2023/03/03 07:11:44;;;;;;;50.38;28.08;;;6.50;90.70;;;;;;5067203;28;20510;-54
2023/03/03 07:14:14;;;;;;;44.58;28.60;;;6.60;90.70;;;;;;5067080;28;20089;-54
2023/03/03 07:16:40;;;;;;;50.80;28.60;;;6.60;90.70;;;;;;5067069;28;20033;-55
2023/03/03 07:19:29;;;;;;;51.80;29.17;;;6.50;90.70;;;;;;5064797;28;20402;-54
2023/03/03 07:21:54;;;;;;;50.03;31.05;;;6.60;90.60;;;;;;5040136;28;20029;-54
2023/03/03 07:24:28;;;;;;;53.70;31.00;;;6.60;90.60;;;;;;5048945;28;20076;-54
2023/03/03 07:27:19;;;;;;;50.65;30.48;;;6.60;90.60;;;;;;5062963;28;20025;-54
2023/03/03 07:29:48;;;;;;;58.70;30.50;;;6.60;90.60;;;;;;5051248;28;20032;-54
2023/03/03 07:32:34;;;;;;;73.93;32.67;;;6.60;90.60;;;;;;5049225;28;20155;-54
2023/03/03 07:35:00;;;;;;;55.30;30.55;;;6.60;90.60;;;;;;5044466;28;20045;-54
2023/03/03 07:37:37;;;;;;;59.92;31.13;;;6.50;90.50;;;;;;5044303;28;20034;-54
2023/03/03 07:40:26;;;;;;;54.65;31.48;;;6.60;90.50;;;;;;5044457;28;20040;-54
2023/03/03 07:42:52;;;;;;;58.70;31.65;;;6.60;90.50;;;;;;5044237;28;20091;-54
2023/03/03 07:45:25;;;;;;;66.60;33.75;;;6.60;90.50;;;;;;5045853;28;20454;-54
2023/03/03 07:47:51;;;;;;;58.08;31.77;;;6.60;90.50;;;;;;5047096;28;20059;-54
2023/03/03 07:50:20;;;;;;;66.28;33.83;;;6.60;90.50;;;;;;5045852;28;20101;-54
2023/03/03 07:52:55;;;;;;;71.25;34.70;;;6.60;90.50;;;;;;5045633;28;20037;-54
2023/03/03 07:55:36;;;;;;;72.63;35.60;;;6.60;90.50;;;;;;5046108;28;20104;-54
2023/03/03 07:58:16;;;;;;;79.88;34.03;;;6.60;90.50;;;;;;5045810;28;20030;-54
2023/03/03 08:01:01;;;;;;;66.75;32.78;;;6.70;90.50;;;;;;5046832;28;20036;-54
2023/03/03 08:03:26;;;;;;;77.20;34.63;;;6.60;90.40;;;;;;5057334;28;20057;-55
2023/03/03 08:05:52;;;;;;;71.07;34.33;;;6.70;90.40;;;;;;5052445;28;20075;-54
2023/03/03 08:08:31;;;;;;;73.53;34.55;;;6.70;90.40;;;;;;5063108;28;20521;-54
2023/03/03 08:10:57;;;;;;;72.57;35.67;;;6.70;90.40;;;;;;5053115;28;20043;-54
2023/03/03 08:13:32;;;;;;;62.35;33.50;;;6.70;90.40;;;;;;5055058;28;20354;-54
2023/03/03 08:16:03;;;;;;;75.65;37.13;;;6.70;90.30;;;;;;5061452;28;20025;-54
2023/03/03 08:18:46;;;;;;;68.88;34.35;;;6.70;90.30;;;;;;5065490;28;20036;-54
2023/03/03 08:21:12;;;;;;;89.03;34.85;;;6.80;90.30;;;;;;5066933;28;20498;-54
2023/03/03 08:23:38;;;;;;;68.50;34.58;;;6.80;90.20;;;;;;5065422;28;20056;-54
2023/03/03 08:26:04;;;;;;;74.68;37.95;;;6.80;90.20;;;;;;5065566;28;20021;-54
2023/03/03 08:28:29;;;;;;;85.68;38.00;;;6.80;90.20;;;;;;5066937;28;20029;-54
2023/03/03 08:30:55;;;;;;;89.50;37.83;;;6.80;90.20;;;;;;5063090;28;20017;-54
2023/03/03 08:33:20;;;;;;;89.00;37.22;;;6.90;90.20;;;;;;5046627;28;20116;-54
2023/03/03 08:35:46;;;;;;;97.50;37.08;;;6.80;90.20;;;;;;5044838;28;20436;-54
2023/03/03 08:38:13;;;;;;;101.13;39.95;;;6.90;90.20;;;;;;5044909;28;20030;-54
2023/03/03 08:40:38;;;;;;;91.05;38.35;;;6.90;90.20;;;;;;5046707;28;20101;-54
2023/03/03 08:43:04;;;;;;;91.68;40.20;;;6.90;90.20;;;;;;5045788;28;20125;-54
2023/03/03 08:45:30;;;;;;;103.18;36.72;;;6.90;90.30;;;;;;5045370;28;20025;-54
2023/03/03 08:47:55;;;;;;;79.78;37.78;;;6.90;90.30;;;;;;5043946;28;20141;-55
2023/03/03 08:50:21;;;;;;;82.32;38.38;;;6.90;90.20;;;;;;5045879;28;20075;-54
2023/03/03 08:52:47;;;;;;;97.45;39.50;;;6.90;90.20;;;;;;5045730;28;20033;-54
2023/03/03 08:55:12;;;;;;;76.90;37.67;;;6.90;90.10;;;;;;5045145;28;20080;-54
2023/03/03 08:57:38;;;;;;;88.35;39.83;;;6.90;90.10;;;;;;5046662;28;20033;-54
2023/03/03 09:00:08;;;;;;;101.88;39.63;;;7.00;90.20;;;;;;5045733;28;20035;-54
2023/03/03 09:02:34;;;;;;;86.82;37.65;;;7.00;90.20;;;;;;5049039;28;20029;-54
2023/03/03 09:04:59;;;;;;;82.45;38.83;;;7.00;90.20;;;;;;5047510;28;20107;-54
2023/03/03 09:07:25;;;;;;;90.63;39.15;;;7.00;90.20;;;;;;5045032;28;20025;-54
2023/03/03 09:09:50;;;;;;;88.32;39.10;;;7.00;90.30;;;;;;5045126;28;20033;-54
2023/03/03 09:12:21;;;;;;;104.97;36.70;;;7.00;90.30;;;;;;5043182;28;20095;-54
2023/03/03 09:14:47;;;;;;;103.22;39.20;;;7.10;90.30;;;;;;5043054;28;20030;-54
2023/03/03 09:17:28;;;;;;;101.90;39.15;;;7.10;90.20;;;;;;5042598;28;20065;-54
2023/03/03 09:19:57;;;;;;;128.50;41.60;;;7.10;90.30;;;;;;5043922;28;20040;-55
2023/03/03 09:22:24;;;;;;;107.78;39.17;;;7.10;90.30;;;;;;5026205;28;20044;-54
2023/03/03 09:24:56;;;;;;;94.88;39.10;;;7.20;90.20;;;;;;5044367;28;20056;-54
2023/03/03 09:27:30;;;;;;;104.65;38.65;;;7.10;90.10;;;;;;5038705;28;20083;-54
2023/03/03 09:30:11;;;;;;;112.85;40.40;;;7.20;90.20;;;;;;5045768;28;20029;-54
2023/03/03 09:32:41;;;;;;;107.15;40.70;;;7.20;90.20;;;;;;5048689;28;20029;-54
2023/03/03 09:35:44;;;;;;;118.68;39.83;;;7.20;90.20;;;;;;5043486;28;20112;-55
2023/03/03 09:38:24;;;;;;;121.93;41.45;;;7.20;90.10;;;;;;5039354;28;20030;-55
2023/03/03 09:40:57;;;;;;;105.60;39.00;;;7.30;90.20;;;;;;5039531;28;20037;-54
2023/03/03 09:43:42;;;;;;;141.32;42.72;;;7.30;90.20;;;;;;5056413;28;20072;-54
2023/03/03 09:46:35;;;;;;;140.70;41.83;;;7.10;90.20;;;;;;5057521;28;20108;-55
2023/03/03 09:49:31;;;;;;;140.30;43.85;;;7.30;90.30;;;;;;5047806;28;20037;-55
2023/03/03 09:52:16;;;;;;;137.32;43.33;;;7.30;90.30;;;;;;5038977;28;20125;-54
2023/03/03 09:55:06;;;;;;;145.23;43.47;;;7.40;90.40;;;;;;5057685;28;20033;-54
2023/03/03 09:58:04;;;;;;;136.88;44.13;;;7.40;90.40;;;;;;5037022;28;20029;-54
2023/03/03 10:01:02;;;;;;;135.38;41.88;;;7.50;90.50;;;;;;5044263;28;20171;-54
2023/03/03 10:03:30;;;;;;;140.32;41.47;;;7.50;90.40;;;;;;5034793;28;20125;-54
2023/03/03 10:06:02;;;;;;;117.40;41.28;;;7.50;90.30;;;;;;5047347;28;20381;-54
2023/03/03 10:08:27;;;;;;;134.40;43.97;;;7.50;90.30;;;;;;5047073;28;20029;-54
2023/03/03 10:11:12;;;;;;;156.95;44.17;;;7.60;90.20;;;;;;5044503;28;20025;-54
2023/03/03 10:14:08;;;;;;;150.23;44.70;;;7.60;90.20;;;;;;5043284;28;20025;-54
2023/03/03 10:16:46;;;;;;;147.40;42.88;;;7.60;90.30;;;;;;5038997;28;20278;-54
2023/03/03 10:19:33;;;;;;;176.50;45.50;;;7.70;90.40;;;;;;5039769;28;20051;-54
2023/03/03 10:22:23;;;;;;;190.90;47.08;;;7.70;90.30;;;;;;5027676;28;20112;-54
2023/03/03 10:25:15;;;;;;;144.13;43.75;;;7.70;90.30;;;;;;5042401;28;20040;-54
2023/03/03 10:27:52;;;;;;;130.32;43.55;;;7.80;90.30;;;;;;5036754;28;20116;-54
2023/03/03 10:30:52;;;;;;;161.63;44.85;;;7.80;90.20;;;;;;5034466;28;20036;-54
2023/03/03 10:33:24;;;;;;;161.63;44.40;;;7.80;90.20;;;;;;5043833;28;20068;-54
2023/03/03 10:36:07;;;;;;;145.02;44.35;;;7.90;90.20;;;;;;5044215;28;20026;-53
2023/03/03 10:39:08;;;;;;;145.95;43.13;;;7.90;90.20;;;;;;5045978;28;20500;-55
2023/03/03 10:41:53;;;;;;;146.85;42.10;;;7.90;90.20;;;;;;5039761;28;20045;-54
2023/03/03 10:44:24;;;;;;;152.70;43.67;;;8.00;90.10;;;;;;5044395;28;20034;-53
2023/03/03 10:47:22;;;;;;;171.30;44.80;;;8.00;90.00;;;;;;5044120;28;20021;-54
2023/03/03 10:50:11;;;;;;;157.07;44.72;;;8.10;90.10;;;;;;5032202;28;20102;-56
2023/03/03 10:52:38;;;;;;;168.15;43.90;;;8.10;90.00;;;;;;5040962;28;20060;-56
2023/03/03 10:55:35;;;;;;;178.35;45.38;;;8.10;90.00;;;;;;5043479;28;20037;-56
2023/03/03 10:58:50;;;;;;;161.80;43.00;;;8.20;90.00;;;;;;5037873;28;20030;-56
2023/03/03 11:01:34;;;;;;;158.55;42.08;;;8.20;90.00;;;;;;5021897;28;20124;-56
2023/03/03 11:04:06;;;;;;;174.35;44.03;;;8.20;89.80;;;;;;5045785;28;20040;-56
2023/03/03 11:06:57;;;;;;;201.02;45.67;;;8.30;89.70;;;;;;5032843;28;20038;-56
2023/03/03 11:09:32;;;;;;;141.93;44.85;;;8.30;89.60;;;;;;5027227;28;20036;-56
2023/03/03 11:12:24;;;;;;;169.30;43.90;;;8.40;89.70;;;;;;5035426;28;20103;-56
2023/03/03 11:15:18;;;;;;;183.77;45.00;;;8.40;89.50;;;;;;5047826;28;20030;-56
2023/03/03 11:17:49;;;;;;;196.25;48.83;;;8.40;89.40;;;;;;5057332;28;20658;-57
2023/03/03 11:20:19;;;;;;;190.90;47.53;;;8.50;89.40;;;;;;5051198;28;20059;-57
2023/03/03 11:23:00;;;;;;;207.18;48.75;;;8.50;89.40;;;;;;5046642;28;20059;-57
2023/03/03 11:25:39;;;;;;;232.25;50.08;;;8.50;89.50;;;;;;5059052;28;20033;-57
2023/03/03 11:28:23;;;;;;;199.05;49.05;;;8.60;90.10;;;;;;5064018;28;20056;-57
2023/03/03 11:31:19;;;;;;;198.73;48.28;;;8.60;89.80;;;;;;5058958;28;20100;-57
2023/03/03 11:33:59;;;;;;;212.68;47.10;;;8.70;89.50;;;;;;5050449;28;20405;-57
2023/03/03 11:36:45;;;;;;;194.30;46.90;;;8.70;89.50;;;;;;5058465;28;20033;-57
2023/03/03 11:39:16;;;;;;;309.15;55.22;;;8.80;89.40;;;;;;5062266;28;20128;-57
2023/03/03 11:41:52;;;;;;;231.55;49.85;;;8.80;89.90;;;;;;5043999;28;20110;-57
2023/03/03 11:44:28;;;;;;;239.25;50.03;;;8.80;89.30;;;;;;5042524;28;20102;-57
2023/03/03 11:47:26;;;;;;;163.18;47.55;;;8.90;89.30;;;;;;5042275;28;20030;-57
2023/03/03 11:50:12;;;;;;;182.70;46.47;;;8.90;89.00;;;;;;5042657;28;20026;-57
2023/03/03 11:53:11;;;;;;;196.60;47.30;;;8.90;88.80;;;;;;5026261;28;20113;-57
2023/03/03 11:55:41;;;;;;;219.35;49.03;;;9.00;88.80;;;;;;5027828;28;20089;-57
2023/03/03 11:58:15;;;;;;;173.30;45.55;;;9.00;88.90;;;;;;5027252;28;20041;-57
2023/03/03 12:01:05;;;;;;;190.00;46.63;;;9.10;89.10;;;;;;5044574;28;20037;-57
2023/03/03 12:03:36;;;;;;;187.23;47.05;;;9.10;89.10;;;;;;5045773;28;20042;-57
2023/03/03 12:06:50;;;;;;;239.13;51.00;;;9.10;88.80;;;;;;5045820;28;20041;-57
2023/03/03 12:09:35;;;;;;;207.55;48.47;;;9.20;88.70;;;;;;5022500;28;20040;-56
2023/03/03 12:12:23;;;;;;;181.23;47.58;;;9.20;88.60;;;;;;5045182;28;20041;-57
2023/03/03 12:14:54;;;;;;;207.60;45.45;;;9.20;88.50;;;;;;5038242;28;20033;-57
2023/03/03 12:17:30;;;;;;;206.48;46.85;;;9.30;88.50;;;;;;5045370;28;20045;-57
2023/03/03 12:20:05;;;;;;;245.30;51.17;;;9.30;88.40;;;;;;5040897;28;20037;-55
2023/03/03 12:22:41;;;;;;;203.27;48.13;;;9.40;88.40;;;;;;5046700;28;20064;-55
2023/03/03 12:25:26;;;;;;;201.57;46.85;;;9.40;88.10;;;;;;5044468;28;20081;-55
2023/03/03 12:27:53;;;;;;;190.32;46.30;;;9.50;88.00;;;;;;5046277;28;20056;-55
2023/03/03 12:30:25;;;;;;;262.48;50.92;;;9.50;87.90;;;;;;5046476;28;20028;-55
2023/03/03 12:32:59;;;;;;;197.43;47.85;;;9.50;87.70;;;;;;5060906;28;20095;-55
2023/03/03 12:35:52;;;;;;;193.18;45.38;;;9.60;87.70;;;;;;5044662;28;20034;-55
2023/03/03 12:38:25;;;;;;;172.35;44.67;;;9.60;87.70;;;;;;5044694;28;20025;-55
2023/03/03 12:41:23;;;;;;;156.63;42.47;;;9.60;87.70;;;;;;5045696;28;20041;-55
2023/03/03 12:44:21;;;;;;;146.25;42.38;;;9.60;88.00;;;;;;5038558;28;20045;-55
2023/03/03 12:47:06;;;;;;;182.38;44.33;;;9.60;88.40;;;;;;5044385;28;20048;-55
2023/03/03 12:49:40;;;;;;;133.52;40.35;;;9.70;88.30;;;;;;5044718;28;20029;-54
2023/03/03 12:52:24;;;;;;;131.57;39.88;;;9.70;88.10;;;;;;5027410;28;20028;-53
2023/03/03 12:54:55;;;;;;;167.93;47.05;;;9.70;87.90;;;;;;5045253;28;20056;-55
2023/03/03 12:57:36;;;;;;;139.02;41.10;;;9.80;87.70;;;;;;5046257;28;20044;-55
2023/03/03 13:00:25;;;;;;;144.77;41.65;;;9.80;87.50;;;;;;5046011;28;20041;-55